Time;durP1;ratioP1;P1;durP2;ratioP2;P2;SDS_P1;SDS_P2;PMS_P1;PMS_P2;Temp;Humidity;BMP_temperature;BMP_pressure;BME280_temperature;BME280_humidity;BME280_pressure;Samples;Min_cycle;Max_cycle;Signal;HPM_P1;HPM_P2
2022/10/07 00:00:58;;;;;;;11.48;5.28;;;;;;;12.27;100.00;97703.16;4997758;28;20046;-66
2022/10/07 00:03:25;;;;;;;7.95;5.00;;;;;;;12.25;100.00;97700.78;4993299;28;20603;-67
2022/10/07 00:06:11;;;;;;;11.80;5.47;;;;;;;12.26;100.00;97704.31;4994224;28;20042;-67
2022/10/07 00:08:38;;;;;;;9.65;5.57;;;;;;;12.25;100.00;97703.53;4984080;28;20081;-66
2022/10/07 00:11:12;;;;;;;10.25;5.13;;;;;;;12.18;100.00;97709.63;4982710;28;20463;-65
2022/10/07 00:13:40;;;;;;;13.27;5.57;;;;;;;12.16;100.00;97695.44;4981739;28;20133;-66
2022/10/07 00:16:11;;;;;;;12.45;5.70;;;;;;;12.16;100.00;97703.69;4992319;28;20053;-65
2022/10/07 00:18:39;;;;;;;10.48;4.93;;;;;;;12.16;100.00;97697.41;4998789;28;20053;-67
2022/10/07 00:21:07;;;;;;;8.25;5.38;;;;;;;12.22;100.00;97698.72;4980717;28;20049;-65
2022/10/07 00:23:33;;;;;;;11.15;5.35;;;;;;;12.22;100.00;97696.75;4984347;28;20046;-66
2022/10/07 00:26:00;;;;;;;8.57;5.68;;;;;;;12.35;100.00;97702.19;4984243;28;20105;-68
2022/10/07 00:28:26;;;;;;;11.15;5.28;;;;;;;12.39;100.00;97703.88;4978685;28;20043;-65
2022/10/07 00:31:02;;;;;;;13.50;5.35;;;;;;;12.29;100.00;97704.41;4974596;28;20044;-68
2022/10/07 00:33:30;;;;;;;14.18;5.57;;;;;;;12.24;100.00;97705.47;4988273;28;20045;-66
2022/10/07 00:35:55;;;;;;;12.07;5.70;;;;;;;12.20;100.00;97717.50;4996807;28;20108;-66
2022/10/07 00:38:21;;;;;;;14.00;6.10;;;;;;;12.19;100.00;97710.41;4999077;28;21661;-65
2022/10/07 00:40:46;;;;;;;13.70;6.88;;;;;;;12.21;100.00;97705.38;5003706;28;20362;-67
2022/10/07 00:43:26;;;;;;;9.25;6.00;;;;;;;12.20;100.00;97701.03;4995833;28;20545;-67
2022/10/07 00:45:58;;;;;;;10.88;6.18;;;;;;;12.20;100.00;97704.56;5003301;28;20498;-68
2022/10/07 00:48:28;;;;;;;14.18;6.82;;;;;;;12.17;100.00;97705.28;5000298;28;20545;-66
2022/10/07 00:50:56;;;;;;;15.93;6.60;;;;;;;12.14;100.00;97705.19;5005405;28;20041;-65
2022/10/07 00:53:26;;;;;;;12.18;6.00;;;;;;;12.14;100.00;97697.75;4992504;28;21030;-67
2022/10/07 00:55:54;;;;;;;15.85;6.65;;;;;;;12.09;100.00;97709.00;4999869;28;20054;-66
2022/10/07 00:58:20;;;;;;;17.77;7.15;;;;;;;12.06;100.00;97698.69;4992549;28;20037;-66
2022/10/07 01:00:46;;;;;;;11.95;6.95;;;;;;;12.04;100.00;97698.25;5004385;28;20049;-66
2022/10/07 01:03:11;;;;;;;12.05;7.65;;;;;;;11.99;100.00;97699.31;4996369;28;20517;-66
2022/10/07 01:05:37;;;;;;;15.55;8.70;;;;;;;11.96;100.00;97691.78;5006304;28;20091;-66
2022/10/07 01:08:03;;;;;;;16.58;8.80;;;;;;;11.91;100.00;97691.25;5011704;28;20486;-66
2022/10/07 01:10:53;;;;;;;19.02;10.90;;;;;;;11.84;100.00;97684.38;5004895;28;20211;-65
2022/10/07 01:13:30;;;;;;;;;;;;;;;11.83;100.00;97688.28;5000971;28;20042;-66
2022/10/07 01:16:11;;;;;;;20.00;10.35;;;;;;;11.80;100.00;97678.00;5011899;28;19924;-66
2022/10/07 01:18:57;;;;;;;24.60;11.43;;;;;;;11.73;100.00;97677.78;4989851;28;20061;-66
2022/10/07 01:21:45;;;;;;;20.45;10.55;;;;;;;11.71;100.00;97674.59;5004441;28;20534;-66
2022/10/07 01:24:38;;;;;;;16.98;10.68;;;;;;;11.70;100.00;97675.75;4985560;28;20069;-65
2022/10/07 01:27:12;;;;;;;19.80;10.57;;;;;;;11.70;100.00;97673.00;4991041;28;20045;-65
2022/10/07 01:29:44;;;;;;;22.10;10.35;;;;;;;11.68;100.00;97664.31;4999052;28;20053;-65
2022/10/07 01:32:23;;;;;;;22.38;11.77;;;;;;;11.66;100.00;97672.09;4989740;28;20037;-65
2022/10/07 01:34:53;;;;;;;15.93;11.50;;;;;;;11.62;100.00;97665.72;5013989;28;20105;-65
2022/10/07 01:37:21;;;;;;;21.42;12.45;;;;;;;11.61;100.00;97664.94;5008780;28;20049;-65
2022/10/07 01:39:51;;;;;;;22.88;12.57;;;;;;;11.64;100.00;97666.97;5010612;28;20034;-65
2022/10/07 01:42:18;;;;;;;21.33;12.52;;;;;;;11.66;100.00;97659.19;5004486;28;20045;-65
2022/10/07 01:44:48;;;;;;;29.70;12.70;;;;;;;11.65;100.00;97660.34;5009777;28;20042;-65
2022/10/07 01:47:14;;;;;;;18.98;12.00;;;;;;;11.65;100.00;97656.81;4996406;28;20128;-65
2022/10/07 01:49:39;;;;;;;22.23;12.93;;;;;;;11.63;100.00;97656.34;4997220;28;20113;-66
2022/10/07 01:52:23;;;;;;;23.88;13.35;;;;;;;11.63;100.00;97656.34;5012198;28;20050;-65
2022/10/07 01:54:54;;;;;;;25.38;13.68;;;;;;;11.66;100.00;97650.16;5012604;28;20061;-66
2022/10/07 01:57:38;;;;;;;28.80;14.80;;;;;;;11.65;100.00;97643.09;5002254;28;20195;-66
2022/10/07 02:00:09;;;;;;;25.90;15.23;;;;;;;11.63;100.00;97643.44;4992946;28;20041;-65
2022/10/07 02:02:49;;;;;;;26.02;16.13;;;;;;;11.63;100.00;97642.63;5004650;28;20046;-67
2022/10/07 02:05:45;;;;;;;23.25;14.40;;;;;;;11.68;100.00;97639.63;5005908;28;20110;-66
2022/10/07 02:08:43;;;;;;;28.20;15.60;;;;;;;11.71;100.00;97638.94;4980609;28;20088;-67
2022/10/07 02:11:20;;;;;;;31.33;16.00;;;;;;;11.74;100.00;97630.00;4997878;28;20049;-67
2022/10/07 02:13:45;;;;;;;25.42;15.88;;;;;;;11.78;100.00;97630.88;5011273;28;20192;-67
2022/10/07 02:16:17;;;;;;;28.25;15.80;;;;;;;11.78;100.00;97632.84;5003368;28;20436;-67
2022/10/07 02:18:48;;;;;;;29.88;16.63;;;;;;;11.78;100.00;97630.09;5001767;28;20041;-68
2022/10/07 02:21:17;;;;;;;34.22;17.70;;;;;;;11.79;100.00;97628.94;5001861;28;20056;-66
2022/10/07 02:23:46;;;;;;;35.17;17.03;;;;;;;11.79;100.00;97629.75;5008375;28;20367;-67
2022/10/07 02:26:16;;;;;;;27.42;17.45;;;;;;;11.87;100.00;97627.97;4998379;28;20293;-67
2022/10/07 02:28:44;;;;;;;35.45;18.13;;;;;;;11.89;100.00;97624.88;5001121;28;20057;-66
2022/10/07 02:31:14;;;;;;;40.05;19.23;;;;;;;11.87;100.00;97619.75;5008730;28;20026;-66
2022/10/07 02:33:41;;;;;;;29.40;17.48;;;;;;;11.99;100.00;97624.38;5016361;28;20348;-66
2022/10/07 02:36:21;;;;;;;28.58;17.45;;;;;;;12.05;100.00;97620.22;4970839;28;20156;-65
2022/10/07 02:38:47;;;;;;;29.20;17.10;;;;;;;12.17;100.00;97617.41;5012337;28;20049;-65
2022/10/07 02:41:31;;;;;;;27.17;16.30;;;;;;;12.21;100.00;97612.00;4990104;28;20502;-66
2022/10/07 02:44:29;;;;;;;29.13;16.92;;;;;;;12.15;100.00;97610.66;5000474;28;20058;-66
2022/10/07 02:47:05;;;;;;;36.38;18.02;;;;;;;12.17;100.00;97611.09;4977758;28;20512;-67
2022/10/07 02:49:36;;;;;;;32.00;16.80;;;;;;;12.19;100.00;97608.78;4980562;28;20050;-67
2022/10/07 02:52:06;;;;;;;29.80;17.38;;;;;;;12.35;100.00;97609.59;4982371;28;20447;-67
2022/10/07 02:54:38;;;;;;;28.35;16.60;;;;;;;12.31;100.00;97608.69;4999383;28;20053;-66
2022/10/07 02:57:05;;;;;;;31.88;18.17;;;;;;;12.22;100.00;97608.88;4996097;28;20485;-65
2022/10/07 02:59:32;;;;;;;31.98;17.02;;;;;;;12.09;100.00;97612.88;4994151;28;20057;-67
2022/10/07 03:02:01;;;;;;;28.30;18.05;;;;;;;12.09;100.00;97599.16;5001405;28;20502;-66
2022/10/07 03:04:27;;;;;;;26.50;17.25;;;;;;;12.22;100.00;97613.59;4988738;28;20042;-67
2022/10/07 03:06:53;;;;;;;36.22;18.08;;;;;;;12.32;100.00;97598.53;4997623;28;20052;-67
2022/10/07 03:09:19;;;;;;;29.90;16.50;;;;;;;12.39;100.00;97598.69;4989894;28;20042;-65
2022/10/07 03:11:44;;;;;;;34.20;18.73;;;;;;;12.27;100.00;97596.06;5000257;28;20106;-65
2022/10/07 03:14:10;;;;;;;30.95;17.90;;;;;;;12.35;100.00;97604.09;4995971;28;20042;-67
2022/10/07 03:16:36;;;;;;;26.65;16.90;;;;;;;12.41;100.00;97605.41;4980288;28;20120;-66
2022/10/07 03:19:01;;;;;;;30.30;17.17;;;;;;;12.30;100.00;97606.31;5001036;28;20111;-66
2022/10/07 03:21:27;;;;;;;33.47;19.33;;;;;;;12.29;100.00;97607.47;4998599;28;20053;-66
2022/10/07 03:23:53;;;;;;;29.13;17.98;;;;;;;12.33;100.00;97602.84;5001230;28;20052;-66
2022/10/07 03:26:18;;;;;;;30.45;17.40;;;;;;;12.41;100.00;97596.38;4992349;28;20042;-66
2022/10/07 03:28:45;;;;;;;27.58;18.00;;;;;;;12.54;100.00;97597.84;4998889;28;20053;-66
2022/10/07 03:31:13;;;;;;;27.83;16.90;;;;;;;12.60;100.00;97599.19;4990473;28;20095;-66
2022/10/07 03:33:38;;;;;;;27.40;17.60;;;;;;;12.71;100.00;97593.13;5000722;28;20120;-66
2022/10/07 03:36:06;;;;;;;28.75;17.45;;;;;;;12.84;100.00;97589.13;4997095;28;20192;-64
2022/10/07 03:38:32;;;;;;;28.13;16.75;;;;;;;12.85;100.00;97598.94;4994757;28;20053;-66
2022/10/07 03:41:00;;;;;;;28.08;16.48;;;;;;;12.86;100.00;97589.53;5003360;28;20394;-65
2022/10/07 03:43:26;;;;;;;33.72;17.15;;;;;;;12.92;100.00;97592.81;4998821;28;20038;-65
2022/10/07 03:45:52;;;;;;;26.73;16.85;;;;;;;12.96;100.00;97591.72;5000565;28;20156;-65
2022/10/07 03:48:17;;;;;;;28.42;17.02;;;;;;;12.93;100.00;97594.41;4992066;28;20192;-65
2022/10/07 03:50:54;;;;;;;27.45;17.08;;;;;;;12.91;100.00;97594.75;5004858;28;20402;-65
2022/10/07 03:53:20;;;;;;;28.20;16.42;;;;;;;12.84;100.00;97594.59;4996824;28;20107;-65
2022/10/07 03:55:45;;;;;;;35.17;18.42;;;;;;;12.90;100.00;97593.16;5002709;28;20136;-65
2022/10/07 03:58:11;;;;;;;25.63;15.68;;;;;;;12.93;100.00;97599.91;4986054;28;20057;-65
2022/10/07 04:00:38;;;;;;;22.13;14.45;;;;;;;12.89;100.00;97585.25;5002230;28;20042;-67
2022/10/07 04:03:04;;;;;;;26.98;15.43;;;;;;;12.91;100.00;97597.50;5002075;28;20061;-65
2022/10/07 04:05:30;;;;;;;24.63;15.40;;;;;;;12.86;100.00;97595.03;5006770;28;20057;-66
2022/10/07 04:07:55;;;;;;;31.45;15.88;;;;;;;12.93;100.00;97591.66;5003605;28;20076;-67
2022/10/07 04:10:21;;;;;;;23.75;15.20;;;;;;;12.89;100.00;97586.09;5000724;28;20613;-66
2022/10/07 04:12:47;;;;;;;25.65;15.18;;;;;;;12.95;100.00;97586.59;5001605;28;20046;-66
2022/10/07 04:15:14;;;;;;;27.10;16.58;;;;;;;13.01;100.00;97587.88;4990367;28;20038;-66
2022/10/07 04:17:41;;;;;;;26.17;14.32;;;;;;;13.04;100.00;97592.66;5003071;28;20042;-66
2022/10/07 04:20:08;;;;;;;27.00;15.93;;;;;;;12.98;100.00;97589.41;4998495;28;20049;-66
2022/10/07 04:22:33;;;;;;;29.77;16.30;;;;;;;12.95;100.00;97581.09;5004769;28;20048;-66
2022/10/07 04:27:43;;;;;;;31.85;18.67;;;;;;;12.92;100.00;97581.81;5012799;28;20038;-66
2022/10/07 04:30:09;;;;;;;43.15;21.27;;;;;;;12.74;100.00;97578.66;5004957;28;20140;-65
2022/10/07 04:32:35;;;;;;;40.15;22.30;;;;;;;12.51;100.00;97575.78;5009063;28;20073;-67
2022/10/07 04:35:02;;;;;;;35.20;20.42;;;;;;;12.36;100.00;97572.72;4998719;28;20087;-66
2022/10/07 04:37:29;;;;;;;35.80;22.25;;;;;;;12.22;100.00;97567.69;4988625;28;20141;-67
2022/10/07 04:39:55;;;;;;;40.40;23.10;;;;;;;12.16;100.00;97571.06;5001830;28;20137;-66
2022/10/07 04:45:06;;;;;;;42.90;23.40;;;;;;;12.21;100.00;97568.06;4992555;28;20042;-66
2022/10/07 04:47:34;;;;;;;46.92;25.95;;;;;;;12.23;100.00;97563.78;4996542;28;20046;-66
2022/10/07 04:50:01;;;;;;;48.67;26.50;;;;;;;12.27;100.00;97563.09;4995749;28;20049;-66
2022/10/07 04:52:26;;;;;;;42.08;25.10;;;;;;;12.39;100.00;97563.78;4975293;28;20048;-66
2022/10/07 04:54:53;;;;;;;51.95;26.45;;;;;;;12.48;100.00;97569.06;4982556;28;20062;-68
2022/10/07 04:57:18;;;;;;;48.10;26.52;;;;;;;12.49;100.00;97562.41;4979825;28;20233;-68
2022/10/07 04:59:44;;;;;;;46.08;23.52;;;;;;;12.59;100.00;97570.09;4984227;28;20134;-65
2022/10/07 05:02:10;;;;;;;39.10;22.70;;;;;;;12.63;100.00;97567.44;4973669;28;20069;-66
2022/10/07 05:04:35;;;;;;;39.75;21.73;;;;;;;12.67;100.00;97567.53;4982967;28;20507;-66
2022/10/07 05:07:01;;;;;;;37.83;22.77;;;;;;;12.76;100.00;97565.34;4985201;28;20042;-66
2022/10/07 05:09:26;;;;;;;41.42;21.73;;;;;;;12.79;100.00;97554.44;4979366;28;20133;-66
2022/10/07 05:11:54;;;;;;;41.72;23.45;;;;;;;12.75;100.00;97556.31;4993496;28;20084;-66
2022/10/07 05:14:20;;;;;;;46.97;26.02;;;;;;;12.64;100.00;97563.53;4996521;28;20042;-66
2022/10/07 05:16:47;;;;;;;46.60;26.33;;;;;;;12.50;100.00;97557.72;5003330;28;20518;-66
2022/10/07 05:19:13;;;;;;;43.92;25.98;;;;;;;12.45;100.00;97556.03;5000124;28;20042;-67
2022/10/07 05:21:38;;;;;;;52.03;28.80;;;;;;;12.40;100.00;97557.09;5002957;28;20103;-68
2022/10/07 05:24:04;;;;;;;56.13;28.98;;;;;;;12.35;100.00;97557.41;4998972;28;20065;-66
2022/10/07 05:26:30;;;;;;;54.13;30.58;;;;;;;12.22;100.00;97561.41;5002965;28;20078;-66
2022/10/07 05:28:55;;;;;;;63.88;30.13;;;;;;;12.16;100.00;97563.63;5003898;28;20128;-66
2022/10/07 05:31:20;;;;;;;57.95;30.90;;;;;;;12.12;100.00;97565.50;4997506;28;20058;-66
2022/10/07 05:33:48;;;;;;;55.53;30.40;;;;;;;12.04;100.00;97561.75;5002645;28;20053;-66
2022/10/07 05:36:14;;;;;;;56.83;30.45;;;;;;;12.07;100.00;97565.75;4998250;28;20092;-66
2022/10/07 05:38:40;;;;;;;58.75;30.13;;;;;;;12.13;100.00;97569.03;5004834;28;20446;-66
2022/10/07 05:41:08;;;;;;;59.83;31.83;;;;;;;12.06;100.00;97572.38;4997127;28;20054;-66
2022/10/07 05:43:36;;;;;;;64.82;32.90;;;;;;;11.94;100.00;97565.06;5000304;28;20033;-66
2022/10/07 05:46:03;;;;;;;80.72;35.83;;;;;;;11.88;100.00;97571.91;5000810;28;20394;-65
2022/10/07 05:48:32;;;;;;;74.78;35.47;;;;;;;11.86;100.00;97564.03;4999230;28;20050;-67
2022/10/07 05:50:58;;;;;;;75.82;34.95;;;;;;;11.84;100.00;97565.56;5003632;28;20037;-66
2022/10/07 05:53:27;;;;;;;83.97;36.35;;;;;;;11.80;100.00;97564.66;4993891;28;20175;-66
2022/10/07 05:55:53;;;;;;;89.50;37.78;;;;;;;11.72;100.00;97563.69;4999760;28;20042;-66
2022/10/07 05:58:20;;;;;;;81.10;40.00;;;;;;;11.73;100.00;97557.03;4999011;28;20042;-66
2022/10/07 06:00:53;;;;;;;84.22;37.78;;;;;;;11.73;100.00;97550.75;4996673;28;20050;-67
2022/10/07 06:03:20;;;;;;;91.25;38.60;;;;;;;11.72;100.00;97558.22;4994879;28;20061;-65
2022/10/07 06:05:46;;;;;;;99.70;42.33;;;;;;;11.73;100.00;97559.00;5016790;28;20058;-65
2022/10/07 06:08:12;;;;;;;89.93;42.53;;;;;;;11.75;100.00;97560.22;5008844;28;20504;-65
2022/10/07 06:13:22;;;;;;;93.05;40.78;;;;;;;11.78;100.00;97561.50;4993394;28;20668;-66
2022/10/07 06:15:49;;;;;;;98.03;42.67;;;;;;;11.78;100.00;97556.78;5001531;28;20516;-65
2022/10/07 06:18:14;;;;;;;94.22;43.13;;;;;;;11.81;100.00;97567.06;4997392;28;20075;-65
2022/10/07 06:20:39;;;;;;;95.35;42.40;;;;;;;11.85;100.00;97559.72;4999654;28;20517;-66
2022/10/07 06:23:06;;;;;;;83.60;38.10;;;;;;;11.97;100.00;97555.31;4991055;28;20049;-64
2022/10/07 06:25:31;;;;;;;97.75;43.08;;;;;;;12.05;100.00;97563.38;5001110;28;20524;-65
2022/10/07 06:27:58;;;;;;;90.78;40.92;;;;;;;11.98;100.00;97568.69;5001835;28;20045;-65
2022/10/07 06:30:24;;;;;;;121.63;45.92;;;;;;;12.05;100.00;97560.63;4992993;28;20517;-66
2022/10/07 06:32:50;;;;;;;96.10;43.22;;;;;;;12.32;100.00;97571.06;5000839;28;20046;-66
2022/10/07 06:35:15;;;;;;;95.13;43.78;;;;;;;12.46;100.00;97571.41;4997871;28;20510;-65
2022/10/07 06:37:42;;;;;;;82.50;38.97;;;;;;;12.53;100.00;97574.31;4999172;28;20077;-66
2022/10/07 06:40:08;;;;;;;73.47;36.13;;;;;;;12.47;100.00;97567.47;4993155;28;20128;-64
2022/10/07 06:42:33;;;;;;;68.22;36.55;;;;;;;12.46;100.00;97571.41;4998440;28;20045;-66
2022/10/07 06:44:58;;;;;;;72.18;35.28;;;;;;;12.47;100.00;97567.47;4999398;28;20042;-66
2022/10/07 06:47:24;;;;;;;73.68;36.83;;;;;;;12.50;100.00;97572.25;4986727;28;20522;-65
2022/10/07 06:49:49;;;;;;;83.45;37.83;;;;;;;12.54;100.00;97572.34;5001603;28;20053;-66
2022/10/07 06:52:15;;;;;;;78.93;37.33;;;;;;;12.26;100.00;97569.72;5000070;28;20117;-65
2022/10/07 06:54:40;;;;;;;76.63;38.03;;;;;;;12.25;100.00;97574.44;5008252;28;20057;-65
2022/10/07 06:57:06;;;;;;;88.20;42.20;;;;;;;12.16;100.00;97565.59;4997018;28;20093;-65
2022/10/07 06:59:31;;;;;;;79.03;40.40;;;;;;;12.07;100.00;97562.22;5000633;28;20049;-66
2022/10/07 07:01:58;;;;;;;81.50;40.08;;;;;;;12.14;100.00;97559.66;5002889;28;20048;-66
2022/10/07 07:04:24;;;;;;;89.32;42.03;;;;;;;12.13;100.00;97561.56;4999893;28;20046;-67
2022/10/07 07:06:49;;;;;;;88.75;42.08;;;;;;;12.11;100.00;97557.59;4994865;28;20133;-65
2022/10/07 07:09:14;;;;;;;89.68;45.38;;;;;;;11.98;100.00;97559.66;4999583;28;20061;-64
2022/10/07 07:11:42;;;;;;;99.15;43.75;;;;;;;11.98;100.00;97562.41;5003210;28;20061;-66
2022/10/07 07:14:10;;;;;;;92.20;41.00;;;;;;;12.10;100.00;97566.97;5000480;28;20034;-65
2022/10/07 07:16:36;;;;;;;95.88;43.90;;;;;;;12.28;100.00;97565.47;5009538;28;20148;-66
2022/10/07 07:19:05;;;;;;;85.97;40.65;;;;;;;12.49;100.00;97565.16;5000301;28;20042;-65
2022/10/07 07:21:33;;;;;;;83.32;40.30;;;;;;;12.31;100.00;97564.75;4998916;28;20136;-65
2022/10/07 07:23:59;;;;;;;87.50;40.35;;;;;;;12.31;100.00;97566.72;5001831;28;20038;-65
2022/10/07 07:26:27;;;;;;;82.43;40.08;;;;;;;12.31;100.00;97570.25;4996626;28;20333;-66
2022/10/07 07:28:58;;;;;;;80.95;38.38;;;;;;;12.55;100.00;97576.66;4999957;28;20046;-66
2022/10/07 07:31:27;;;;;;;75.82;35.65;;;;;;;12.74;100.00;97578.66;4989731;28;20054;-66
2022/10/07 07:33:52;;;;;;;70.43;35.35;;;;;;;12.90;100.00;97571.16;4998423;28;20069;-66
2022/10/07 07:36:21;;;;;;;74.50;37.35;;;;;;;13.07;100.00;97572.72;4988744;28;20066;-65
2022/10/07 07:38:50;;;;;;;55.90;30.87;;;;;;;13.22;100.00;97570.22;4999014;28;20121;-66
2022/10/07 07:41:20;;;;;;;62.88;32.80;;;;;;;12.89;100.00;97574.25;4995562;28;20045;-66
2022/10/07 07:43:50;;;;;;;63.55;33.17;;;;;;;12.68;100.00;97569.13;5000532;28;20407;-66
2022/10/07 07:46:17;;;;;;;62.13;31.67;;;;;;;12.57;100.00;97571.63;4995792;28;20095;-66
2022/10/07 07:48:43;;;;;;;64.80;33.75;;;;;;;12.68;100.00;97577.38;5002751;28;20038;-65
2022/10/07 07:51:09;;;;;;;55.20;30.90;;;;;;;12.89;100.00;97577.84;4991956;28;20049;-66
2022/10/07 07:53:38;;;;;;;65.93;31.23;;;;;;;13.12;100.00;97577.88;4998356;28;20144;-66
2022/10/07 07:56:03;;;;;;;52.05;29.95;;;;;;;13.16;100.00;97577.97;4996757;28;20050;-65
2022/10/07 07:58:29;;;;;;;55.22;28.98;;;;;;;13.28;100.00;97572.31;5001888;28;20046;-66
2022/10/07 08:01:05;;;;;;;57.72;29.50;;;;;;;13.53;100.00;97574.78;5000601;28;20128;-66
2022/10/07 08:03:31;;;;;;;58.65;28.15;;;;;;;13.55;100.00;97575.22;5002484;28;20568;-66
2022/10/07 08:06:03;;;;;;;43.65;26.15;;;;;;;13.64;100.00;97564.78;5002024;28;20103;-66
2022/10/07 08:08:29;;;;;;;44.63;26.55;;;;;;;13.63;100.00;97562.38;4982540;28;20510;-66
2022/10/07 08:10:56;;;;;;;53.63;28.30;;;;;;;13.75;100.00;97562.22;4998761;28;20041;-65
2022/10/07 08:13:21;;;;;;;59.25;25.90;;;;;;;13.84;100.00;97561.97;4977414;28;20753;-65
2022/10/07 08:15:47;;;;;;;41.38;25.10;;;;;;;13.66;100.00;97558.91;4982652;28;20053;-65
2022/10/07 08:18:12;;;;;;;42.58;25.67;;;;;;;13.72;100.00;97560.19;4978607;28;20050;-66
2022/10/07 08:20:37;;;;;;;41.35;24.23;;;;;;;13.73;100.00;97556.28;4982806;28;20117;-66
2022/10/07 08:23:04;;;;;;;41.78;24.40;;;;;;;13.71;100.00;97555.84;4981283;28;20048;-66
2022/10/07 08:25:30;;;;;;;42.40;24.27;;;;;;;13.79;100.00;97554.00;4991287;28;20056;-66
2022/10/07 08:27:55;;;;;;;46.90;24.38;;;;;;;13.76;100.00;97553.59;5004692;28;20049;-66
2022/10/07 08:30:20;;;;;;;61.08;35.65;;;;;;;13.72;100.00;97551.91;5003751;28;20434;-65
2022/10/07 08:32:46;;;;;;;44.50;26.33;;;;;;;13.69;100.00;97550.72;4996987;28;20038;-65
2022/10/07 08:35:11;;;;;;;46.47;26.88;;;;;;;13.63;100.00;97552.19;4990633;28;20038;-66
2022/10/07 08:37:37;;;;;;;47.22;26.77;;;;;;;13.45;100.00;97554.59;5006842;28;20488;-67
2022/10/07 08:40:02;;;;;;;52.35;26.98;;;;;;;13.37;100.00;97552.88;5013485;28;20042;-68
2022/10/07 08:42:39;;;;;;;45.78;25.42;;;;;;;13.56;100.00;97546.56;4988001;28;20068;-65
2022/10/07 08:45:09;;;;;;;49.75;26.70;;;;;;;13.38;100.00;97546.22;5002050;28;20069;-67
2022/10/07 08:47:42;;;;;;;;;;;;;;;13.65;100.00;97541.59;5006551;28;20124;-66
2022/10/07 08:50:56;;;;;;;49.20;25.67;;;;;;;13.88;100.00;97546.28;4994506;28;19972;-66
2022/10/07 08:53:30;;;;;;;40.80;24.63;;;;;;;13.90;100.00;97544.78;4985829;28;20135;-66
2022/10/07 08:56:11;;;;;;;49.90;25.35;;;;;;;13.81;100.00;97537.91;5000093;28;20511;-66
2022/10/07 08:59:00;;;;;;;41.45;25.17;;;;;;;14.19;100.00;97536.97;5006015;28;20351;-66
2022/10/07 09:01:35;;;;;;;38.03;24.40;;;;;;;14.63;100.00;97530.94;4996641;28;20042;-66
2022/10/07 09:04:29;;;;;;;36.90;21.73;;;;;;;14.58;100.00;97534.00;4999944;28;20106;-65
2022/10/07 09:06:59;;;;;;;45.22;26.17;;;;;;;14.77;100.00;97529.56;5007643;28;20048;-66
2022/10/07 09:09:33;;;;;;;35.97;21.77;;;;;;;14.86;100.00;97530.84;5004172;28;20096;-66
2022/10/07 09:12:02;;;;;;;45.85;24.13;;;;;;;14.79;100.00;97528.00;5021794;28;20033;-67
2022/10/07 09:14:36;;;;;;;34.63;20.27;;;;;;;14.75;100.00;97529.94;5034329;28;20141;-67
2022/10/07 09:17:11;;;;;;;36.10;19.70;;;;;;;14.69;100.00;97523.94;5023238;28;20049;-66
2022/10/07 09:19:45;;;;;;;41.10;20.30;;;;;;;14.75;100.00;97529.94;5019446;28;20498;-66
2022/10/07 09:22:20;;;;;;;33.40;19.23;;;;;;;14.75;100.00;97531.88;5001595;28;20139;-68
2022/10/07 09:24:57;;;;;;;37.05;19.95;;;;;;;14.72;100.00;97525.94;4999524;28;20041;-66
2022/10/07 09:27:23;;;;;;;29.83;17.88;;;;;;;14.76;100.00;97533.47;5002457;28;20515;-65
2022/10/07 09:29:50;;;;;;;27.17;16.58;;;;;;;14.51;100.00;97525.63;5004189;28;20060;-66
2022/10/07 09:32:17;;;;;;;29.15;16.58;;;;;;;14.69;100.00;97525.88;4998214;28;20137;-66
2022/10/07 09:34:44;;;;;;;25.92;16.38;;;;;;;14.77;100.00;97521.28;4992476;28;20060;-66
2022/10/07 09:37:19;;;;;;;25.38;15.93;;;;;;;14.87;100.00;97524.19;4996900;28;20038;-65
2022/10/07 09:39:48;;;;;;;24.08;15.13;;;;;;;14.95;100.00;97511.25;5011359;28;20042;-66
2022/10/07 09:42:38;;;;;;;24.92;15.40;;;;;;;14.92;100.00;97512.00;5001795;28;20042;-66
2022/10/07 09:45:26;;;;;;;24.33;15.25;;;;;;;15.18;100.00;97516.66;4974763;28;20042;-67
2022/10/07 09:47:54;;;;;;;32.63;17.02;;;;;;;15.06;100.00;97512.19;4988311;28;20042;-66
2022/10/07 09:50:40;;;;;;;26.63;16.80;;;;;;;15.18;100.00;97511.13;4982237;28;20038;-66
2022/10/07 09:53:19;;;;;;;27.08;17.30;;;;;;;15.14;100.00;97504.75;4999620;23;20065;-67
2022/10/07 09:55:45;;;;;;;38.70;21.13;;;;;;;15.09;100.00;97503.16;4964465;28;20105;-66
2022/10/07 09:58:30;;;;;;;34.03;20.10;;;;;;;15.08;100.00;97512.59;4971071;28;20046;-66
2022/10/07 10:00:58;;;;;;;31.75;17.55;;;;;;;15.01;100.00;97504.22;4994646;28;20143;-68
2022/10/07 10:03:33;;;;;;;27.67;18.17;;;;;;;15.13;100.00;97505.94;4994558;28;20130;-67
2022/10/07 10:06:01;;;;;;;31.05;17.88;;;;;;;15.14;100.00;97503.97;4981833;28;20050;-68
2022/10/07 10:08:32;;;;;;;41.42;22.60;;;;;;;15.37;100.00;97504.63;4976075;28;20075;-68
2022/10/07 10:11:02;;;;;;;36.42;20.45;;;;;;;15.39;100.00;97507.78;5001429;28;20508;-68
2022/10/07 10:13:32;;;;;;;27.33;17.77;;;;;;;15.43;100.00;97492.09;4997488;28;20494;-66
2022/10/07 10:15:58;;;;;;;28.30;17.90;;;;;;;15.51;100.00;97495.69;4990813;28;20058;-67
2022/10/07 10:18:38;;;;;;;30.63;18.05;;;;;;;15.28;100.00;97493.09;4976808;28;20574;-66
2022/10/07 10:21:22;;;;;;;34.25;18.42;;;;;;;15.37;100.00;97490.81;4980831;28;20042;-66
2022/10/07 10:23:52;;;;;;;27.55;18.38;;;;;;;15.56;100.00;97489.06;4984733;28;20038;-66
2022/10/07 10:26:27;;;;;;;34.00;18.05;;;;;;;15.65;100.00;97486.75;4978085;28;20100;-67
2022/10/07 10:29:04;;;;;;;28.60;17.92;;;;;;;15.58;100.00;97475.66;4993246;28;20118;-69
2022/10/07 10:31:47;;;;;;;32.25;17.63;;;;;;;15.57;100.00;97482.34;5001360;28;20050;-67
2022/10/07 10:34:37;;;;;;;29.35;18.67;;;;;;;15.66;100.00;97474.53;4980898;28;20038;-67
2022/10/07 10:37:10;;;;;;;32.15;18.55;;;;;;;15.63;100.00;97469.78;4984128;28;20046;-67
2022/10/07 10:39:36;;;;;;;31.83;18.60;;;;;;;15.55;100.00;97471.66;4993369;28;20510;-65
2022/10/07 10:42:06;;;;;;;28.60;17.58;;;;;;;15.74;100.00;97473.44;4988036;28;20046;-67
2022/10/07 10:44:34;;;;;;;32.10;17.55;;;;;;;15.62;100.00;97468.97;4982161;28;20044;-67
2022/10/07 10:47:20;;;;;;;34.58;21.08;;;;;;;15.60;100.00;97465.81;4982309;28;20034;-68
2022/10/07 10:50:09;;;;;;;32.63;18.25;;;;;;;15.59;100.00;97463.41;4991673;28;20042;-67
2022/10/07 10:52:51;;;;;;;35.47;17.25;;;;;;;15.70;100.00;97456.03;4990529;28;20042;-67
2022/10/07 10:55:20;;;;;;;31.50;16.30;;;;;;;15.42;100.00;97460.13;4963155;28;20046;-67
2022/10/07 10:58:11;;;;;;;27.98;16.35;;;;;;;15.77;100.00;97453.38;4965576;28;20088;-67
2022/10/07 11:00:59;;;;;;;36.20;18.80;;;;;;;15.62;100.00;97455.16;4982062;28;20082;-67
2022/10/07 11:03:49;;;;;;;31.13;17.42;;;;;;;15.68;100.00;97456.41;4969670;28;20041;-67
2022/10/07 11:06:17;;;;;;;25.30;16.67;;;;;;;15.82;100.00;97444.69;4997861;28;20049;-66
2022/10/07 11:08:46;;;;;;;29.05;16.70;;;;;;;15.86;100.00;97440.00;4994324;28;20467;-66
2022/10/07 11:11:16;;;;;;;25.63;16.73;;;;;;;16.12;100.00;97437.41;4982987;28;20045;-67
2022/10/07 11:13:55;;;;;;;32.50;18.02;;;;;;;16.28;100.00;97435.16;4968158;28;20471;-67
2022/10/07 11:16:25;;;;;;;27.55;17.20;;;;;;;16.40;100.00;97434.81;4978130;28;20081;-67
2022/10/07 11:19:00;;;;;;;25.25;16.33;;;;;;;16.36;100.00;97428.47;4984219;28;20396;-67
2022/10/07 11:21:40;;;;;;;29.67;16.52;;;;;;;16.66;100.00;97424.66;4975770;28;20054;-68
2022/10/07 11:24:15;;;;;;;29.85;15.95;;;;;;;16.86;100.00;97421.59;4976386;28;20038;-66
2022/10/07 11:26:46;;;;;;;24.77;15.85;;;;;;;17.09;100.00;97421.25;5003543;28;20042;-67
2022/10/07 11:29:21;;;;;;;28.48;17.08;;;;;;;16.69;100.00;97418.34;4997899;28;20049;-68
2022/10/07 11:31:55;;;;;;;26.45;16.00;;;;;;;17.30;100.00;97417.72;4982235;28;20108;-65
2022/10/07 11:34:33;;;;;;;28.35;15.85;;;;;;;17.29;100.00;97416.16;4978209;28;20455;-66